Time;durP1;ratioP1;P1;durP2;ratioP2;P2;SDS_P1;SDS_P2;PMS_P1;PMS_P2;Temp;Humidity;BMP_temperature;BMP_pressure;BME280_temperature;BME280_humidity;BME280_pressure;Samples;Min_cycle;Max_cycle;Signal;HPM_P1;HPM_P2
2022/05/18 00:01:06;;;;;;;1.65;0.60;;;;;;;10.14;100.00;100553.81;6201897;23;19992;-76
2022/05/18 00:03:36;;;;;;;4.13;0.90;;;;;;;10.17;100.00;100575.16;6226940;23;20004;-76
2022/05/18 00:06:04;;;;;;;4.85;0.63;;;;;;;10.11;100.00;100582.47;6175771;23;20412;-78
2022/05/18 00:11:51;;;;;;;3.88;0.80;;;;;;;10.00;100.00;100591.66;6225589;23;20329;-78
2022/05/18 00:17:16;;;;;;;1.83;0.85;;;;;;;9.94;100.00;100609.94;6188575;23;20088;-77
2022/05/18 00:20:12;;;;;;;1.90;0.93;;;;;;;9.78;100.00;100586.25;6198945;23;20003;-78
2022/05/18 00:23:16;;;;;;;10.07;1.20;;;;;;;9.86;100.00;100618.56;6195161;23;20007;-77
2022/05/18 00:26:41;;;;;;;;;;;;;;;;;;;;;
2022/05/18 00:29:53;;;;;;;3.30;0.90;;;;;;;9.64;100.00;100604.94;6201810;23;20035;-76
2022/05/18 00:32:55;;;;;;;4.68;0.75;;;;;;;9.53;100.00;100598.53;6196202;23;20062;-76
2022/05/18 00:35:29;;;;;;;4.95;0.98;;;;;;;9.61;100.00;100614.47;6198649;23;20064;-77
2022/05/18 00:38:07;;;;;;;;;;;;;;;;;;;;;
2022/05/18 00:40:35;;;;;;;3.05;1.05;;;;;;;9.67;100.00;100637.19;6224419;23;20363;-77
2022/05/18 00:43:01;;;;;;;7.13;0.90;;;;;;;9.65;100.00;100647.56;6198217;23;20020;-78
2022/05/18 00:45:29;;;;;;;1.20;0.68;;;;;;;9.63;100.00;100644.25;6228179;23;20007;-76
2022/05/18 00:47:55;;;;;;;4.07;1.13;;;;;;;9.64;100.00;100642.34;6228263;23;20027;-75
2022/05/18 00:50:31;;;;;;;2.75;0.93;;;;;;;9.62;100.00;100639.84;6206151;23;19997;-78
2022/05/18 00:53:16;;;;;;;1.45;1.05;;;;;;;9.60;100.00;100648.31;6233265;23;19997;-78
2022/05/18 00:55:45;;;;;;;3.40;0.88;;;;;;;9.59;100.00;100649.41;6236459;23;20011;-78
2022/05/18 00:58:40;;;;;;;7.78;1.67;;;;;;;9.57;100.00;100643.34;6259939;23;20336;-77
2022/05/18 01:01:07;;;;;;;7.50;1.80;;;;;;;9.56;100.00;100641.72;6202070;23;20004;-78
2022/05/18 01:03:39;;;;;;;7.53;1.50;;;;;;;9.60;100.00;100648.31;6228362;23;20042;-77
2022/05/18 01:06:23;;;;;;;6.03;1.83;;;;;;;9.52;100.00;100637.84;6229143;23;20000;-77
2022/05/18 01:08:56;;;;;;;6.95;1.45;;;;;;;9.53;100.00;100646.84;6228211;23;20427;-79
2022/05/18 01:11:21;;;;;;;6.03;1.48;;;;;;;9.47;100.00;100635.03;6229780;23;20004;-77
2022/05/18 01:13:48;;;;;;;6.50;1.70;;;;;;;9.46;100.00;100640.75;6228325;23;20035;-77
2022/05/18 01:16:15;;;;;;;4.63;1.40;;;;;;;9.42;100.00;100646.72;6199484;23;20008;-78
2022/05/18 01:18:42;;;;;;;6.85;2.13;;;;;;;9.42;100.00;100635.81;6204847;23;20401;-77
2022/05/18 01:21:09;;;;;;;2.97;1.42;;;;;;;9.46;100.00;100641.56;6202228;23;20054;-76
2022/05/18 01:24:01;;;;;;;8.70;1.45;;;;;;;9.42;100.00;100651.38;6204778;23;20000;-76
2022/05/18 01:26:40;;;;;;;4.47;1.75;;;;;;;9.36;100.00;100649.63;6227056;23;20012;-76
2022/05/18 01:29:06;;;;;;;3.47;1.23;;;;;;;9.31;100.00;100639.47;6255764;23;20058;-76
2022/05/18 01:31:52;;;;;;;5.57;1.58;;;;;;;9.35;100.00;100658.91;6230504;23;20413;-76
2022/05/18 01:34:20;;;;;;;6.45;1.67;;;;;;;9.34;100.00;100654.53;6229075;23;20327;-76
2022/05/18 01:36:47;;;;;;;5.32;1.30;;;;;;;9.26;100.00;100648.41;6228403;23;20012;-76
2022/05/18 01:39:50;;;;;;;1.10;1.00;;;;;;;9.20;100.00;100665.81;6230092;23;20040;-77
2022/05/18 01:42:31;;;;;;;1.65;0.75;;;;;;;9.12;100.00;100660.75;6231917;23;20101;-77
2022/05/18 01:45:03;;;;;;;2.03;1.05;;;;;;;9.00;100.00;100649.13;6198527;23;20090;-77
2022/05/18 01:47:50;;;;;;;2.85;1.00;;;;;;;9.04;100.00;100661.22;6218745;23;20028;-76
2022/05/18 01:50:24;;;;;;;1.17;0.98;;;;;;;8.93;100.00;100643.03;6175151;23;20032;-77
2022/05/18 01:52:50;;;;;;;1.00;0.80;;;;;;;8.95;100.00;100640.88;6223988;23;20075;-78
2022/05/18 01:55:17;;;;;;;2.25;0.82;;;;;;;8.99;100.00;100647.47;6173831;23;20016;-77
2022/05/18 01:57:44;;;;;;;3.25;0.85;;;;;;;8.97;100.00;100649.63;6224849;23;20005;-76
2022/05/18 02:00:11;;;;;;;4.72;1.42;;;;;;;8.99;100.00;100658.38;6222977;23;20008;-77
2022/05/18 02:02:37;;;;;;;3.30;1.40;;;;;;;8.99;100.00;100647.47;6197891;23;20062;-76
2022/05/18 02:05:06;;;;;;;4.07;1.52;;;;;;;9.04;100.00;100666.66;6224486;23;20000;-75
2022/05/18 02:07:35;;;;;;;2.78;1.13;;;;;;;8.98;100.00;100649.38;6222172;23;20016;-77
2022/05/18 02:10:04;;;;;;;3.10;1.55;;;;;;;9.01;100.00;100656.22;6175376;23;20016;-77
2022/05/18 02:12:29;;;;;;;3.03;1.20;;;;;;;8.99;100.00;100652.94;6207059;23;20016;-78
2022/05/18 02:14:55;;;;;;;5.82;1.13;;;;;;;8.91;100.00;100648.72;6182221;23;19997;-78
2022/05/18 02:17:31;;;;;;;;;;;;;;;;;;;;;
2022/05/18 02:23:44;;;;;;;3.50;1.75;;;;;;;8.87;100.00;100642.94;6074258;23;20378;-75
2022/05/18 02:29:57;;;;;;;8.68;2.38;;;;;;;9.10;100.00;100660.19;6251820;23;20019;-74
2022/05/18 02:33:00;;;;;;;6.13;2.47;;;;;;;9.05;100.00;100657.38;6252046;23;20103;-75
2022/05/18 02:35:26;;;;;;;6.07;2.60;;;;;;;9.01;100.00;100650.75;6253880;23;20000;-75
2022/05/18 02:38:53;;;;;;;4.20;2.08;;;;;;;9.10;100.00;100665.66;6253869;23;20071;-76
2022/05/18 02:41:49;;;;;;;4.13;2.17;;;;;;;8.85;100.00;100631.47;6203441;23;20004;-76
2022/05/18 02:50:47;;;;;;;4.22;1.42;;;;;;;8.94;100.00;100669.22;6025684;23;20447;-76
2022/05/18 02:56:54;;;;;;;0.82;0.70;;;;;;;8.76;100.00;100654.78;6158122;23;20052;-76
2022/05/18 02:59:21;;;;;;;2.00;1.25;;;;;;;8.72;100.00;100653.63;6162122;23;20006;-77
2022/05/18 03:01:48;;;;;;;2.60;1.10;;;;;;;8.77;100.00;100659.13;6200075;23;20001;-77
2022/05/18 03:04:14;;;;;;;2.42;0.90;;;;;;;8.72;100.00;100665.34;6200354;23;19997;-77
2022/05/18 03:06:40;;;;;;;1.27;1.00;;;;;;;8.70;100.00;100655.75;6199739;23;20040;-78
2022/05/18 03:09:06;;;;;;;1.63;1.00;;;;;;;8.68;100.00;100661.44;6176816;23;20012;-77
2022/05/18 03:11:34;;;;;;;2.00;0.73;;;;;;;8.65;100.00;100664.69;6175449;23;20019;-77
2022/05/18 03:13:59;;;;;;;2.88;1.00;;;;;;;8.55;100.00;100653.59;6199691;23;20090;-77
2022/05/18 03:16:27;;;;;;;2.03;1.20;;;;;;;8.64;100.00;100668.47;6175245;23;20068;-77
2022/05/18 03:18:53;;;;;;;2.63;1.42;;;;;;;8.70;100.00;100677.56;6200889;23;20020;-77
2022/05/18 03:24:03;;;;;;;1.40;1.10;;;;;;;8.63;100.00;100657.81;6226722;23;20462;-76
2022/05/18 03:26:33;;;;;;;1.40;1.30;;;;;;;8.68;100.00;100666.09;6199950;23;20098;-78
2022/05/18 03:28:59;;;;;;;2.28;1.63;;;;;;;8.69;100.00;100682.19;6199449;23;20012;-76
2022/05/18 03:31:29;;;;;;;2.30;1.15;;;;;;;8.64;100.00;100675.84;6201266;23;20386;-78
2022/05/18 03:37:10;;;;;;;;;;;;;;;8.65;100.00;100677.50;6139095;23;20028;-75
2022/05/18 03:40:29;;;;;;;5.35;1.73;;;;;;;8.41;100.00;100653.09;6224167;23;19904;-77
2022/05/18 03:53:40;;;;;;;9.50;3.58;;;;;;;9.07;100.00;100694.25;6017709;23;20039;-75
2022/05/18 03:56:35;;;;;;;6.13;3.58;;;;;;;9.18;100.00;100700.69;6046277;23;20031;-75
2022/05/18 03:59:11;;;;;;;3.45;2.45;;;;;;;9.26;100.00;100711.19;5964260;23;20034;-77
2022/05/18 04:05:20;;;;;;;5.45;2.58;;;;;;;9.31;100.00;100694.06;5964128;23;20666;-76
2022/05/18 04:07:49;;;;;;;3.17;2.20;;;;;;;9.51;100.00;100720.00;6016517;23;20060;-77
2022/05/18 04:10:18;;;;;;;2.08;1.73;;;;;;;9.47;100.00;100719.66;6087889;23;20106;-77
2022/05/18 04:12:47;;;;;;;3.47;1.95;;;;;;;9.28;100.00;100702.75;6136236;23;20030;-78
2022/05/18 04:15:16;;;;;;;4.45;2.20;;;;;;;9.28;100.00;100715.56;6113430;23;20114;-77
2022/05/18 04:17:48;;;;;;;2.92;2.10;;;;;;;9.18;100.00;100717.06;6138994;23;20452;-78
2022/05/18 04:29:06;;;;;;;;;;;;;;;;;;;;;
2022/05/18 04:31:36;;;;;;;;;;;;;;;8.90;100.00;100721.53;6043945;23;20028;-77
2022/05/18 04:34:55;;;;;;;2.22;1.30;;;;;;;8.90;100.00;100726.16;6165359;23;19904;-76
2022/05/18 04:44:50;;;;;;;;;;;;;;;;;;;;;
2022/05/18 04:47:40;;;;;;;8.68;2.50;;;;;;;8.88;100.00;100717.41;6114729;23;20049;-78
2022/05/18 04:50:15;;;;;;;5.72;3.25;;;;;;;9.00;100.00;100725.50;6168746;23;20005;-78
2022/05/18 04:53:09;;;;;;;7.53;2.97;;;;;;;9.01;100.00;100718.97;6198170;23;20058;-78
2022/05/18 04:56:39;;;;;;;;;;;;;;;;;;;;;
2022/05/18 04:59:16;;;;;;;10.25;2.83;;;;;;;8.98;100.00;100716.72;6256571;23;20032;-77
2022/05/18 05:04:55;;;;;;;5.97;2.17;;;;;;;9.23;100.00;100771.72;6227936;23;20062;-78
2022/05/18 05:11:24;;;;;;;7.68;2.35;;;;;;;9.34;100.00;100771.88;6167886;23;20009;-78
2022/05/18 05:14:40;;;;;;;;;;;;;;;;;;;;;
2022/05/18 05:17:12;;;;;;;4.68;1.48;;;;;;;9.38;100.00;100771.13;6232044;23;20039;-78
2022/05/18 05:19:38;;;;;;;1.80;1.50;;;;;;;9.41;100.00;100775.25;6255228;23;20027;-77
2022/05/18 05:25:27;;;;;;;1.13;0.90;;;;;;;9.60;100.00;100784.81;6133588;23;20010;-78
2022/05/18 05:31:15;;;;;;;1.38;1.27;;;;;;;9.55;100.00;100782.03;6231672;23;20018;-77
2022/05/18 05:34:35;;;;;;;1.00;0.80;;;;;;;9.72;100.00;100798.38;6230900;23;20419;-78
2022/05/18 05:37:34;;;;;;;;;;;;;;;;;;;;;
2022/05/18 05:40:23;;;;;;;1.10;0.90;;;;;;;10.05;100.00;100769.31;6104787;23;20363;-78
2022/05/18 05:42:49;;;;;;;2.83;1.30;;;;;;;10.37;100.00;100789.69;6079746;23;20003;-77
2022/05/18 05:48:42;;;;;;;2.72;1.63;;;;;;;11.05;100.00;100808.44;6219565;23;20015;-77
2022/05/18 05:51:13;;;;;;;1.73;1.58;;;;;;;11.24;100.00;100790.53;6230249;23;20056;-77
2022/05/18 05:53:52;;;;;;;1.40;1.30;;;;;;;11.48;100.00;100791.00;6229507;23;20019;-77
2022/05/18 05:56:29;;;;;;;5.78;1.63;;;;;;;11.93;100.00;100829.94;6228675;23;20099;-78
2022/05/18 05:58:55;;;;;;;1.90;1.70;;;;;;;12.09;100.00;100832.75;6230798;23;20385;-78
2022/05/18 06:01:21;;;;;;;7.60;2.55;;;;;;;12.23;100.00;100812.00;6256110;23;20004;-77
2022/05/18 06:03:48;;;;;;;3.33;1.85;;;;;;;12.52;99.24;100825.28;6202868;23;20024;-75
2022/05/18 06:06:19;;;;;;;4.25;1.92;;;;;;;12.68;99.19;100824.22;6225049;23;20078;-78
2022/05/18 06:08:58;;;;;;;;;;;;;;;;;;;;;
2022/05/18 06:11:27;;;;;;;3.05;1.60;;;;;;;13.13;97.67;100835.56;6254964;23;20027;-74
2022/05/18 06:13:53;;;;;;;2.00;1.38;;;;;;;13.21;97.81;100836.94;6222619;23;20012;-75
2022/05/18 06:16:21;;;;;;;3.60;1.63;;;;;;;13.30;97.28;100848.19;6200636;23;20004;-74
2022/05/18 06:19:07;;;;;;;5.03;1.35;;;;;;;13.30;97.25;100846.25;6196811;23;20008;-73
2022/05/18 06:21:33;;;;;;;1.40;1.15;;;;;;;13.36;97.00;100850.72;6199242;23;20431;-74
2022/05/18 06:23:59;;;;;;;1.20;1.00;;;;;;;13.58;97.17;100846.84;6224276;23;20027;-75
2022/05/18 06:26:26;;;;;;;1.27;1.10;;;;;;;13.83;96.22;100847.91;6201211;23;20054;-74
2022/05/18 06:28:53;;;;;;;1.40;1.10;;;;;;;14.07;95.70;100851.69;6201309;23;20489;-74
2022/05/18 06:31:20;;;;;;;5.50;2.08;;;;;;;14.22;94.91;100850.00;6176931;23;20436;-75
2022/05/18 06:33:48;;;;;;;6.05;2.08;;;;;;;14.15;94.14;100850.31;6200470;23;20378;-76
2022/05/18 06:36:14;;;;;;;11.65;2.70;;;;;;;14.08;93.04;100850.59;6200882;23;20009;-77
2022/05/18 06:38:40;;;;;;;5.68;1.83;;;;;;;14.13;92.39;100858.88;6224031;23;20007;-76
2022/05/18 06:41:22;;;;;;;3.88;1.95;;;;;;;14.31;92.26;100859.34;6201894;23;19988;-74
2022/05/18 06:44:02;;;;;;;11.30;2.33;;;;;;;14.59;91.89;100855.09;6228005;23;20000;-76
2022/05/18 06:47:02;;;;;;;6.57;1.92;;;;;;;14.61;89.03;100857.56;6228058;23;20000;-76
2022/05/18 06:49:28;;;;;;;12.60;3.03;;;;;;;14.49;88.01;100861.47;6228508;23;20004;-76
2022/05/18 06:52:32;;;;;;;3.88;1.42;;;;;;;14.60;88.42;100854.00;6226008;23;19997;-77
2022/05/18 06:54:57;;;;;;;10.57;2.40;;;;;;;14.64;88.38;100857.03;6198283;23;20116;-76
2022/05/18 06:57:23;;;;;;;5.45;1.75;;;;;;;14.72;87.30;100866.63;6224367;23;20296;-76
2022/05/18 06:59:53;;;;;;;14.70;2.10;;;;;;;14.61;85.25;100874.09;6223045;23;20335;-74
2022/05/18 07:02:18;;;;;;;16.00;2.58;;;;;;;14.61;85.26;100868.56;6196961;23;20008;-74
2022/05/18 07:04:44;;;;;;;9.82;2.10;;;;;;;14.67;84.55;100864.72;6198381;23;20024;-76
2022/05/18 07:07:09;;;;;;;12.65;2.15;;;;;;;15.02;84.11;100879.41;6222702;23;20061;-78
2022/05/18 07:09:36;;;;;;;17.58;2.88;;;;;;;15.13;82.00;100869.97;6225910;23;20008;-74
2022/05/18 07:12:13;;;;;;;9.25;2.38;;;;;;;15.31;81.65;100873.16;6229626;23;19996;-75
2022/05/18 07:31:09;;;;;;;9.77;1.70;;;;;;;15.54;78.20;100874.34;6102449;23;20015;-77
2022/05/18 07:33:43;;;;;;;7.90;1.70;;;;;;;15.95;78.07;100889.72;6077504;23;20029;-76
2022/05/18 07:36:09;;;;;;;16.70;2.95;;;;;;;15.92;75.27;100884.81;6168650;23;20008;-76
2022/05/18 07:38:35;;;;;;;9.45;1.52;;;;;;;16.10;75.70;100894.25;6139322;23;20013;-75
2022/05/18 07:41:01;;;;;;;15.30;2.20;;;;;;;16.26;73.50;100894.94;6221459;23;20087;-75
2022/05/18 07:43:27;;;;;;;11.23;1.73;;;;;;;16.13;74.28;100896.44;6224285;23;19996;-76
2022/05/18 07:49:59;;;;;;;11.40;2.10;;;;;;;15.99;74.25;100857.66;6254659;23;20026;-76
2022/05/18 07:52:37;;;;;;;10.48;2.10;;;;;;;16.38;72.51;100887.03;6147484;23;20005;-75
2022/05/18 07:55:03;;;;;;;9.98;1.63;;;;;;;16.52;71.52;100887.97;6254489;22;20040;-76
2022/05/18 08:04:11;;;;;;;7.68;1.98;;;;;;;16.21;71.14;100896.63;6110784;23;20006;-75
2022/05/18 08:06:57;;;;;;;5.82;1.30;;;;;;;16.32;71.99;100882.72;6199590;23;20016;-76
2022/05/18 08:23:54;;;;;;;9.25;1.92;;;;;;;17.14;66.17;100914.81;6109590;23;20401;-76
2022/05/18 08:26:25;;;;;;;6.80;1.48;;;;;;;17.00;66.69;100875.25;6226749;23;20007;-76
2022/05/18 08:29:49;;;;;;;;;;;;;;;;;;;;;
2022/05/18 08:42:11;;;;;;;15.88;2.13;;;;;;;18.52;60.78;100894.22;6218039;23;20015;-76
2022/05/18 08:44:37;;;;;;;11.82;2.22;;;;;;;18.48;61.57;100901.50;6202536;23;20018;-76
2022/05/18 08:47:16;;;;;;;11.82;1.95;;;;;;;18.37;60.81;100888.97;6201849;23;20032;-76
2022/05/18 08:50:00;;;;;;;8.35;1.55;;;;;;;18.61;59.96;100886.81;6227368;23;20096;-77
2022/05/18 08:53:20;;;;;;;9.05;2.13;;;;;;;18.73;59.32;100891.00;6227883;23;20011;-77
2022/05/18 08:59:31;;;;;;;6.35;1.65;;;;;;;19.00;57.41;100891.00;6191272;22;20086;-75
2022/05/18 09:02:46;;;;;;;11.15;1.75;;;;;;;20.24;56.97;100901.81;6259354;23;20008;-76
2022/05/18 09:05:57;;;;;;;7.57;1.80;;;;;;;21.10;54.48;100889.31;6254938;23;20000;-77
2022/05/18 09:08:37;;;;;;;7.22;1.60;;;;;;;21.28;51.29;100894.88;6224917;23;20016;-76
2022/05/18 09:23:08;;;;;;;7.35;1.75;;;;;;;20.97;52.13;100911.69;6202421;23;20320;-76
2022/05/18 09:25:55;;;;;;;11.77;2.50;;;;;;;21.52;50.70;100907.50;6222039;23;20009;-76
2022/05/18 09:28:41;;;;;;;6.35;1.65;;;;;;;21.96;49.28;100911.00;6222357;23;19997;-76
2022/05/18 09:31:37;;;;;;;10.15;1.92;;;;;;;21.62;49.50;100907.16;6224098;23;20004;-75
2022/05/18 09:34:42;;;;;;;9.73;1.80;;;;;;;21.48;49.39;100914.81;6215476;23;20080;-75
2022/05/18 09:37:16;;;;;;;10.88;2.33;;;;;;;21.39;49.80;100918.44;6220939;23;20005;-77
2022/05/18 09:39:49;;;;;;;11.25;2.13;;;;;;;21.93;48.49;100898.59;6221650;23;20031;-75
2022/05/18 09:43:05;;;;;;;9.13;1.73;;;;;;;22.70;46.18;100896.97;6223278;23;20064;-76
2022/05/18 09:45:54;;;;;;;7.30;1.70;;;;;;;24.18;42.97;100906.88;6262994;22;20023;-77
2022/05/18 09:56:06;;;;;;;10.65;1.95;;;;;;;31.12;29.97;100917.44;6134322;23;20021;-76
2022/05/18 10:35:48;;;;;;;;;;;;;;;;;;;;;
2022/05/18 10:56:41;;;;;;;10.95;1.92;;;;;;;37.34;18.50;100888.25;6076867;23;20029;-76
2022/05/18 10:59:56;;;;;;;7.60;1.80;;;;;;;35.04;20.63;100869.28;6074203;23;20022;-75
2022/05/18 11:06:18;;;;;;;7.18;1.75;;;;;;;37.18;20.40;100851.13;6222704;23;20004;-76
2022/05/18 11:08:53;;;;;;;;;;;;;;;;;;;;;
2022/05/18 11:12:00;;;;;;;6.10;1.60;;;;;;;39.32;17.61;100855.84;6254331;22;20035;-77
2022/05/18 11:14:46;;;;;;;6.75;1.85;;;;;;;37.18;17.43;100856.81;6194382;22;20000;-75
2022/05/18 11:17:23;;;;;;;6.50;1.75;;;;;;;36.60;18.96;100855.09;6225701;22;20616;-76
2022/05/18 11:20:15;;;;;;;4.45;1.30;;;;;;;36.85;19.39;100851.00;6227247;23;20335;-77
2022/05/18 11:23:20;;;;;;;9.27;1.77;;;;;;;36.23;18.63;100857.00;6188325;23;20079;-76
2022/05/18 11:25:53;;;;;;;7.28;1.48;;;;;;;35.03;20.00;100839.25;6182945;22;20004;-76
2022/05/18 11:28:19;;;;;;;6.32;1.50;;;;;;;34.88;20.93;100827.25;6229997;22;20011;-77
2022/05/18 11:31:14;;;;;;;6.90;1.20;;;;;;;35.44;21.21;100822.06;6252598;22;20000;-76
2022/05/18 11:33:54;;;;;;;10.43;1.60;;;;;;;34.87;20.15;100814.28;6226225;22;20087;-76
2022/05/18 11:36:33;;;;;;;6.20;1.38;;;;;;;33.58;22.45;100840.53;6253758;22;20004;-77
2022/05/18 11:39:06;;;;;;;4.80;1.45;;;;;;;32.99;23.16;100837.63;6229860;22;20004;-76
2022/05/18 11:42:11;;;;;;;7.18;1.60;;;;;;;32.93;23.20;100834.41;6231540;22;20054;-76
2022/05/18 11:45:00;;;;;;;8.77;1.73;;;;;;;30.84;24.56;100822.91;6256213;22;20059;-77
2022/05/18 11:47:49;;;;;;;7.18;1.65;;;;;;;29.80;26.75;100811.63;6228236;22;20000;-77
2022/05/18 11:50:21;;;;;;;8.48;1.88;;;;;;;29.20;27.46;100823.88;6231413;22;20079;-76
2022/05/18 11:53:10;;;;;;;10.00;1.88;;;;;;;28.84;28.04;100806.53;6229709;22;20067;-78
2022/05/18 11:56:14;;;;;;;10.77;2.38;;;;;;;29.89;27.16;100811.34;6257934;22;20055;-78
2022/05/18 11:59:31;;;;;;;9.88;1.98;;;;;;;30.23;25.91;100816.84;6257761;22;20026;-77
2022/05/18 12:02:13;;;;;;;3.72;1.27;;;;;;;29.66;26.91;100783.31;6284702;22;20008;-77
2022/05/18 12:05:07;;;;;;;7.30;1.70;;;;;;;29.54;27.42;100799.34;6285094;22;20004;-78
2022/05/18 12:07:44;;;;;;;10.25;1.40;;;;;;;28.31;29.17;100802.56;6258263;22;20006;-75
2022/05/18 12:10:09;;;;;;;9.15;2.25;;;;;;;27.67;30.74;100797.50;6257945;22;20476;-76
2022/05/18 12:13:07;;;;;;;9.00;1.65;;;;;;;27.75;30.30;100806.06;6257925;22;20003;-80
2022/05/18 12:17:12;;;;;;;8.02;1.90;;;;;;;29.06;29.38;100787.94;6261495;22;20000;-79
2022/05/18 12:29:53;;;;;;;;;;;;;;;;;;;;;
2022/05/18 12:32:31;;;;;;;7.65;2.08;;;;;;;33.79;21.85;100772.78;6160943;23;20045;-77
2022/05/18 12:35:21;;;;;;;11.32;2.30;;;;;;;33.90;21.22;100757.28;6160848;23;20076;-78
2022/05/18 12:38:28;;;;;;;;;;;;;;;;;;;;;
2022/05/18 12:41:13;;;;;;;6.75;1.30;;;;;;;34.72;20.67;100725.59;6287336;22;20023;-77
2022/05/18 12:46:58;;;;;;;4.45;1.25;;;;;;;33.34;22.06;100700.63;6259457;22;20003;-78
2022/05/18 12:50:07;;;;;;;3.55;1.33;;;;;;;33.30;23.14;100727.41;6257879;22;20035;-78
2022/05/18 12:52:54;;;;;;;8.20;1.63;;;;;;;32.03;24.46;100722.19;6106907;23;20115;-78
2022/05/18 12:56:24;;;;;;;10.05;2.05;;;;;;;32.26;24.96;100723.00;6256937;22;20501;-78
2022/05/18 12:59:08;;;;;;;8.80;1.77;;;;;;;32.91;23.73;100725.59;6286713;22;20019;-76
2022/05/18 13:02:23;;;;;;;;;;;;;;;;;;;;;
2022/05/18 13:05:09;;;;;;;;;;;;;;;;;;;;;
2022/05/18 13:07:56;;;;;;;7.35;2.20;;;;;;;35.97;20.21;100720.03;6287652;22;20027;-78
2022/05/18 13:10:27;;;;;;;9.23;1.83;;;;;;;34.98;20.93;100706.22;6256755;22;20014;-76
2022/05/18 13:13:01;;;;;;;4.40;1.52;;;;;;;34.28;21.54;100705.47;6257884;22;20369;-77
2022/05/18 13:16:11;;;;;;;;;;;;;;;;;;;;;
2022/05/18 13:18:37;;;;;;;7.82;1.80;;;;;;;34.21;22.33;100702.66;6270938;22;20056;-79
2022/05/18 13:24:25;;;;;;;9.23;1.98;;;;;;;34.59;20.70;100723.34;6263059;22;20010;-79
2022/05/18 13:27:01;;;;;;;7.20;1.45;;;;;;;35.12;21.22;100677.59;6259201;22;20081;-78
2022/05/18 13:30:09;;;;;;;6.90;1.80;;;;;;;38.04;18.08;100702.75;6257612;22;20004;-78
2022/05/18 13:32:57;;;;;;;6.45;1.38;;;;;;;38.42;17.16;100670.69;6281174;22;20008;-77
2022/05/18 13:35:38;;;;;;;;;;;;;;;;;;;;;
2022/05/18 13:38:20;;;;;;;;;;;;;;;;;;;;;
2022/05/18 13:40:59;;;;;;;3.75;1.67;;;;;;;33.62;20.52;100658.31;6286569;22;20035;-79
2022/05/18 13:43:38;;;;;;;12.40;1.88;;;;;;;32.66;21.68;100670.66;6258369;22;20006;-77
2022/05/18 13:46:15;;;;;;;6.20;1.67;;;;;;;32.50;22.64;100654.16;6258883;22;20046;-77
2022/05/18 13:49:11;;;;;;;;;;;;;;;;;;;;;
2022/05/18 13:51:37;;;;;;;4.85;1.23;;;;;;;32.42;22.33;100663.94;6282660;22;20007;-77
2022/05/18 13:54:21;;;;;;;5.03;1.45;;;;;;;32.92;21.53;100667.72;6258417;22;20098;-77
2022/05/18 13:57:05;;;;;;;;;;;;;;;;;;;;;
2022/05/18 13:59:50;;;;;;;5.88;1.13;;;;;;;32.68;21.05;100671.09;6286476;22;19931;-78
2022/05/18 14:02:23;;;;;;;3.92;1.15;;;;;;;30.77;22.14;100654.31;6256202;22;20000;-78
2022/05/18 14:05:04;;;;;;;;;;;;;;;;;;;;;
2022/05/18 14:07:52;;;;;;;8.50;1.65;;;;;;;27.14;27.29;100642.91;6283759;22;20042;-79
2022/05/18 14:10:43;;;;;;;5.88;1.58;;;;;;;25.11;30.93;100611.66;6259635;22;20491;-79
2022/05/18 14:13:11;;;;;;;5.28;1.25;;;;;;;24.04;33.22;100627.06;6260914;22;19999;-79
2022/05/18 14:15:41;;;;;;;11.23;1.60;;;;;;;23.29;33.79;100629.09;6256547;22;19994;-78
2022/05/18 14:18:43;;;;;;;;;;;;;;;;;;;;;
2022/05/18 14:21:12;;;;;;;7.88;1.40;;;;;;;21.93;36.00;100669.47;6283465;22;20019;-78
2022/05/18 14:24:08;;;;;;;;;;;;;;;;;;;;;
2022/05/18 14:27:04;;;;;;;4.47;1.17;;;;;;;23.49;34.11;100618.94;6266005;22;20026;-79
2022/05/18 14:29:58;;;;;;;;;;;;;;;;;;;;;
2022/05/18 14:32:50;;;;;;;4.05;1.13;;;;;;;23.02;34.92;100606.22;6286419;22;20038;-79
2022/05/18 14:35:31;;;;;;;6.07;1.45;;;;;;;23.24;35.34;100617.34;6243096;22;20000;-81
2022/05/18 14:38:17;;;;;;;;;;;;;;;;;;;;;
2022/05/18 14:41:00;;;;;;;5.25;1.45;;;;;;;23.49;32.99;100579.88;6286183;22;20034;-77
2022/05/18 14:43:38;;;;;;;7.78;1.00;;;;;;;22.77;34.14;100559.97;6259429;22;19995;-78
2022/05/18 14:46:20;;;;;;;5.05;1.60;;;;;;;22.40;34.47;100580.19;6257733;22;20030;-78
2022/05/18 14:49:07;;;;;;;6.60;1.30;;;;;;;21.93;35.12;100566.47;6257252;22;20134;-79
2022/05/18 14:55:16;;;;;;;4.63;1.50;;;;;;;21.53;36.78;100566.94;6266392;22;20008;-79
2022/05/18 14:57:49;;;;;;;5.47;1.40;;;;;;;21.49;38.25;100608.47;6258140;22;20370;-78
2022/05/18 15:00:41;;;;;;;5.60;1.23;;;;;;;20.93;38.97;100608.56;6286234;22;19999;-78
2022/05/18 15:03:18;;;;;;;8.15;1.60;;;;;;;20.38;40.96;100638.69;6260886;22;19996;-79
2022/05/18 15:05:53;;;;;;;9.77;1.38;;;;;;;19.98;42.45;100638.84;6262433;22;20030;-77
2022/05/18 15:08:38;;;;;;;8.95;1.25;;;;;;;19.77;43.52;100621.13;6288966;22;20019;-79
2022/05/18 15:11:40;;;;;;;7.18;1.58;;;;;;;19.58;43.37;100585.34;6262703;22;20006;-83
2022/05/18 15:14:28;;;;;;;10.80;1.92;;;;;;;20.00;43.29;100600.47;6260975;22;20004;-79
2022/05/18 15:17:07;;;;;;;8.05;1.63;;;;;;;19.82;44.36;100571.06;6269150;22;20011;-78
2022/05/18 15:20:01;;;;;;;5.80;1.05;;;;;;;19.99;44.85;100565.53;6289130;22;19999;-78
2022/05/18 15:22:54;;;;;;;12.95;1.30;;;;;;;20.83;43.72;100564.44;6289209;22;19995;-79
2022/05/18 15:25:43;;;;;;;8.55;1.50;;;;;;;21.66;42.11;100590.91;6240841;22;20060;-79
2022/05/18 15:28:28;;;;;;;;;;;;;;;;;;;;;
2022/05/18 15:31:21;;;;;;;6.30;1.40;;;;;;;21.85;41.45;100570.94;6290169;22;20026;-81
2022/05/18 15:34:24;;;;;;;5.80;1.33;;;;;;;21.64;41.88;100570.94;6262357;22;20318;-79
2022/05/18 15:36:54;;;;;;;5.82;1.48;;;;;;;21.35;43.04;100550.31;6257880;22;20304;-80
2022/05/18 15:39:19;;;;;;;5.47;1.40;;;;;;;21.36;42.87;100554.72;6258807;22;20003;-79
2022/05/18 15:42:06;;;;;;;;;;;;;;;;;;;;;
2022/05/18 15:44:51;;;;;;;6.50;1.35;;;;;;;20.75;44.41;100525.25;6291902;22;19996;-82
2022/05/18 15:47:52;;;;;;;;;;;;;;;;;;;;;
2022/05/18 15:50:30;;;;;;;5.25;0.80;;;;;;;20.52;44.96;100529.38;6253107;22;19930;-78
2022/05/18 15:53:03;;;;;;;10.15;1.25;;;;;;;20.32;45.90;100534.47;6262564;22;20004;-80
2022/05/18 15:55:40;;;;;;;4.72;1.08;;;;;;;20.22;46.55;100549.53;6241393;22;20027;-81
2022/05/18 15:58:25;;;;;;;;;;;;;;;;;;;;;
2022/05/18 16:01:14;;;;;;;4.95;0.98;;;;;;;19.56;47.81;100530.22;6267609;22;20034;-80
2022/05/18 16:03:40;;;;;;;2.83;1.02;;;;;;;19.43;48.29;100526.44;6291145;22;20055;-80
2022/05/18 16:12:08;;;;;;;5.10;1.10;;;;;;;20.05;47.82;100530.91;6275537;22;19995;-81
2022/05/18 16:14:36;;;;;;;3.72;1.17;;;;;;;20.12;48.45;100507.41;6262702;22;20042;-79
2022/05/18 16:17:11;;;;;;;6.22;1.02;;;;;;;20.05;48.69;100536.47;6290663;22;20000;-81
2022/05/18 16:19:54;;;;;;;;;;;;;;;19.88;48.99;100519.81;6266995;22;20019;-80
2022/05/18 16:23:06;;;;;;;5.18;1.00;;;;;;;19.76;48.87;100517.69;6264587;22;19910;-81
2022/05/18 16:25:42;;;;;;;1.85;1.00;;;;;;;19.64;49.09;100462.84;6194475;22;20003;-79
2022/05/18 16:28:49;;;;;;;;;;;;;;;;;;;;;
2022/05/18 16:31:17;;;;;;;;;;;;;;;;;;;;;
2022/05/18 16:34:13;;;;;;;;;;;;;;;;;;;;;
2022/05/18 16:36:39;;;;;;;3.78;1.17;;;;;;;19.95;50.79;100464.66;6286897;22;20410;-76
2022/05/18 16:39:08;;;;;;;5.45;1.13;;;;;;;19.68;51.04;100438.88;6235806;22;20030;-77
2022/05/18 16:41:43;;;;;;;5.47;1.38;;;;;;;19.71;51.47;100446.53;6261713;22;20038;-77
2022/05/18 16:44:12;;;;;;;3.50;1.20;;;;;;;19.66;51.90;100441.13;6262387;22;20007;-78
2022/05/18 16:46:43;;;;;;;3.47;0.80;;;;;;;19.66;52.54;100430.03;6264347;22;20000;-77
2022/05/18 16:49:09;;;;;;;2.53;1.08;;;;;;;19.76;52.32;100422.53;6261753;22;20014;-80
2022/05/18 16:51:48;;;;;;;;;;;;;;;;;;;;;
2022/05/18 16:54:16;;;;;;;8.32;1.20;;;;;;;20.01;52.23;100395.91;6265453;22;20030;-76
2022/05/18 16:56:42;;;;;;;5.93;1.00;;;;;;;20.20;51.78;100414.97;6261005;22;20026;-76
2022/05/18 16:59:08;;;;;;;4.30;1.08;;;;;;;20.27;51.66;100411.66;6287844;22;20000;-77
2022/05/18 17:01:43;;;;;;;6.20;1.52;;;;;;;20.30;51.96;100414.59;6262459;22;20304;-78
2022/05/18 17:04:09;;;;;;;2.78;1.10;;;;;;;20.35;51.83;100400.50;6261092;22;20053;-78
2022/05/18 17:06:35;;;;;;;2.47;0.98;;;;;;;20.49;51.28;100405.06;6261311;22;20376;-79
2022/05/18 17:09:01;;;;;;;6.07;1.20;;;;;;;20.48;51.30;100398.66;6259264;22;20102;-78